sensor_id;sensor_type;location;lat;lon;timestamp;P1;durP1;ratioP1;P2;durP2;ratioP2
71435;SDS011;59251;51.326;12.370;2024-02-16T00:02:07;7.90;;;3.20;;
71435;SDS011;59251;51.326;12.370;2024-02-16T00:04:34;8.17;;;3.30;;
71435;SDS011;59251;51.326;12.370;2024-02-16T00:07:01;8.50;;;3.20;;
71435;SDS011;59251;51.326;12.370;2024-02-16T00:09:29;11.00;;;3.13;;
71435;SDS011;59251;51.326;12.370;2024-02-16T00:11:56;7.72;;;3.25;;
71435;SDS011;59251;51.326;12.370;2024-02-16T00:14:22;7.07;;;2.97;;
71435;SDS011;59251;51.326;12.370;2024-02-16T00:16:49;7.50;;;2.80;;
71435;SDS011;59251;51.326;12.370;2024-02-16T00:19:16;7.70;;;3.17;;
71435;SDS011;59251;51.326;12.370;2024-02-16T00:21:42;9.27;;;3.45;;
71435;SDS011;59251;51.326;12.370;2024-02-16T00:24:09;7.60;;;2.90;;
71435;SDS011;59251;51.326;12.370;2024-02-16T00:26:37;7.35;;;3.05;;
71435;SDS011;59251;51.326;12.370;2024-02-16T00:29:05;8.73;;;3.00;;
71435;SDS011;59251;51.326;12.370;2024-02-16T00:31:32;8.65;;;2.67;;
71435;SDS011;59251;51.326;12.370;2024-02-16T00:33:58;7.97;;;3.15;;
71435;SDS011;59251;51.326;12.370;2024-02-16T00:36:25;8.50;;;2.90;;
71435;SDS011;59251;51.326;12.370;2024-02-16T00:38:52;8.52;;;3.20;;
71435;SDS011;59251;51.326;12.370;2024-02-16T00:41:19;7.93;;;2.87;;
71435;SDS011;59251;51.326;12.370;2024-02-16T00:43:49;11.55;;;3.35;;
71435;SDS011;59251;51.326;12.370;2024-02-16T00:46:16;9.15;;;3.30;;
71435;SDS011;59251;51.326;12.370;2024-02-16T00:48:42;6.47;;;2.53;;
71435;SDS011;59251;51.326;12.370;2024-02-16T00:51:09;9.18;;;3.17;;
71435;SDS011;59251;51.326;12.370;2024-02-16T00:53:36;7.27;;;3.00;;
71435;SDS011;59251;51.326;12.370;2024-02-16T00:56:03;9.88;;;3.22;;
71435;SDS011;59251;51.326;12.370;2024-02-16T00:58:30;8.70;;;3.47;;
71435;SDS011;59251;51.326;12.370;2024-02-16T01:00:58;7.32;;;2.72;;
71435;SDS011;59251;51.326;12.370;2024-02-16T01:03:25;8.88;;;3.03;;
71435;SDS011;59251;51.326;12.370;2024-02-16T01:05:52;9.30;;;2.97;;
71435;SDS011;59251;51.326;12.370;2024-02-16T01:08:19;11.10;;;3.63;;
71435;SDS011;59251;51.326;12.370;2024-02-16T01:10:45;9.77;;;3.45;;
71435;SDS011;59251;51.326;12.370;2024-02-16T01:13:13;9.88;;;3.40;;
71435;SDS011;59251;51.326;12.370;2024-02-16T01:15:39;6.93;;;2.95;;
71435;SDS011;59251;51.326;12.370;2024-02-16T01:18:08;9.60;;;3.00;;
71435;SDS011;59251;51.326;12.370;2024-02-16T01:20:35;7.43;;;2.70;;
71435;SDS011;59251;51.326;12.370;2024-02-16T01:23:01;9.00;;;3.30;;
71435;SDS011;59251;51.326;12.370;2024-02-16T01:25:30;8.88;;;2.70;;
71435;SDS011;59251;51.326;12.370;2024-02-16T01:27:57;8.35;;;3.00;;
71435;SDS011;59251;51.326;12.370;2024-02-16T01:30:24;7.80;;;2.50;;
71435;SDS011;59251;51.326;12.370;2024-02-16T01:32:50;7.78;;;2.95;;
71435;SDS011;59251;51.326;12.370;2024-02-16T01:35:18;8.02;;;3.75;;
71435;SDS011;59251;51.326;12.370;2024-02-16T01:37:45;10.32;;;3.15;;
71435;SDS011;59251;51.326;12.370;2024-02-16T01:40:12;8.82;;;2.80;;
71435;SDS011;59251;51.326;12.370;2024-02-16T01:42:42;8.27;;;3.17;;
71435;SDS011;59251;51.326;12.370;2024-02-16T01:45:08;9.13;;;3.40;;
71435;SDS011;59251;51.326;12.370;2024-02-16T01:47:36;9.05;;;3.05;;
71435;SDS011;59251;51.326;12.370;2024-02-16T01:50:04;7.90;;;3.50;;
71435;SDS011;59251;51.326;12.370;2024-02-16T01:52:33;9.00;;;2.93;;
71435;SDS011;59251;51.326;12.370;2024-02-16T01:55:02;9.38;;;3.40;;
71435;SDS011;59251;51.326;12.370;2024-02-16T01:57:29;8.15;;;3.00;;
71435;SDS011;59251;51.326;12.370;2024-02-16T01:59:57;9.23;;;3.28;;
71435;SDS011;59251;51.326;12.370;2024-02-16T02:02:24;8.50;;;3.10;;
71435;SDS011;59251;51.326;12.370;2024-02-16T02:04:51;9.90;;;3.50;;
71435;SDS011;59251;51.326;12.370;2024-02-16T02:07:18;9.30;;;3.00;;
71435;SDS011;59251;51.326;12.370;2024-02-16T02:09:48;8.80;;;3.05;;
71435;SDS011;59251;51.326;12.370;2024-02-16T02:12:15;7.90;;;3.00;;
71435;SDS011;59251;51.326;12.370;2024-02-16T02:14:42;8.20;;;3.65;;
71435;SDS011;59251;51.326;12.370;2024-02-16T02:17:09;7.30;;;2.63;;
71435;SDS011;59251;51.326;12.370;2024-02-16T02:19:36;7.57;;;2.65;;
71435;SDS011;59251;51.326;12.370;2024-02-16T02:22:02;8.23;;;2.42;;
71435;SDS011;59251;51.326;12.370;2024-02-16T02:24:31;7.88;;;2.55;;
71435;SDS011;59251;51.326;12.370;2024-02-16T02:26:57;6.85;;;2.42;;
71435;SDS011;59251;51.326;12.370;2024-02-16T02:29:24;8.33;;;2.50;;
71435;SDS011;59251;51.326;12.370;2024-02-16T02:31:51;6.97;;;2.22;;
71435;SDS011;59251;51.326;12.370;2024-02-16T02:34:17;7.72;;;2.70;;
71435;SDS011;59251;51.326;12.370;2024-02-16T02:36:45;9.30;;;2.80;;
71435;SDS011;59251;51.326;12.370;2024-02-16T02:39:12;7.57;;;2.60;;
71435;SDS011;59251;51.326;12.370;2024-02-16T02:41:41;8.17;;;2.60;;
71435;SDS011;59251;51.326;12.370;2024-02-16T02:44:08;7.78;;;2.85;;
71435;SDS011;59251;51.326;12.370;2024-02-16T02:46:36;7.70;;;2.47;;
71435;SDS011;59251;51.326;12.370;2024-02-16T02:49:03;7.03;;;2.60;;
71435;SDS011;59251;51.326;12.370;2024-02-16T02:51:30;6.80;;;2.28;;
71435;SDS011;59251;51.326;12.370;2024-02-16T02:53:57;6.97;;;2.53;;
71435;SDS011;59251;51.326;12.370;2024-02-16T02:56:23;6.68;;;2.40;;
71435;SDS011;59251;51.326;12.370;2024-02-16T02:58:51;7.13;;;2.40;;
71435;SDS011;59251;51.326;12.370;2024-02-16T03:01:18;6.38;;;2.10;;
71435;SDS011;59251;51.326;12.370;2024-02-16T03:03:47;8.95;;;2.50;;
71435;SDS011;59251;51.326;12.370;2024-02-16T03:06:17;7.82;;;2.40;;
71435;SDS011;59251;51.326;12.370;2024-02-16T03:08:44;7.63;;;2.28;;
71435;SDS011;59251;51.326;12.370;2024-02-16T03:11:10;5.85;;;2.00;;
71435;SDS011;59251;51.326;12.370;2024-02-16T03:13:37;7.07;;;2.17;;
71435;SDS011;59251;51.326;12.370;2024-02-16T03:16:06;9.98;;;2.28;;
71435;SDS011;59251;51.326;12.370;2024-02-16T03:18:33;8.32;;;2.33;;
71435;SDS011;59251;51.326;12.370;2024-02-16T03:21:00;9.00;;;2.30;;
71435;SDS011;59251;51.326;12.370;2024-02-16T03:23:27;7.15;;;2.50;;
71435;SDS011;59251;51.326;12.370;2024-02-16T03:25:54;6.20;;;1.98;;
71435;SDS011;59251;51.326;12.370;2024-02-16T03:28:22;7.82;;;2.47;;
71435;SDS011;59251;51.326;12.370;2024-02-16T03:30:49;9.40;;;2.40;;
71435;SDS011;59251;51.326;12.370;2024-02-16T03:33:17;6.15;;;2.00;;
71435;SDS011;59251;51.326;12.370;2024-02-16T03:35:44;9.52;;;2.35;;
71435;SDS011;59251;51.326;12.370;2024-02-16T03:38:10;7.65;;;2.38;;
71435;SDS011;59251;51.326;12.370;2024-02-16T03:40:38;7.90;;;2.03;;
71435;SDS011;59251;51.326;12.370;2024-02-16T03:43:05;6.83;;;2.20;;
71435;SDS011;59251;51.326;12.370;2024-02-16T03:45:31;7.60;;;2.05;;
71435;SDS011;59251;51.326;12.370;2024-02-16T03:47:58;6.25;;;2.10;;
71435;SDS011;59251;51.326;12.370;2024-02-16T03:50:26;9.70;;;2.13;;
71435;SDS011;59251;51.326;12.370;2024-02-16T03:52:53;9.00;;;2.17;;
71435;SDS011;59251;51.326;12.370;2024-02-16T03:55:20;6.67;;;2.20;;
71435;SDS011;59251;51.326;12.370;2024-02-16T03:57:47;7.35;;;2.20;;
71435;SDS011;59251;51.326;12.370;2024-02-16T04:00:13;6.43;;;2.05;;
71435;SDS011;59251;51.326;12.370;2024-02-16T04:02:40;6.00;;;1.60;;
71435;SDS011;59251;51.326;12.370;2024-02-16T04:05:07;7.47;;;2.25;;
71435;SDS011;59251;51.326;12.370;2024-02-16T04:07:36;6.67;;;2.00;;
71435;SDS011;59251;51.326;12.370;2024-02-16T04:10:02;7.15;;;1.77;;
71435;SDS011;59251;51.326;12.370;2024-02-16T04:12:29;7.75;;;1.90;;
71435;SDS011;59251;51.326;12.370;2024-02-16T04:14:56;8.70;;;1.98;;
71435;SDS011;59251;51.326;12.370;2024-02-16T04:17:23;7.47;;;1.73;;
71435;SDS011;59251;51.326;12.370;2024-02-16T04:19:50;6.45;;;2.13;;
71435;SDS011;59251;51.326;12.370;2024-02-16T04:22:17;6.28;;;2.08;;
71435;SDS011;59251;51.326;12.370;2024-02-16T04:24:45;6.57;;;1.95;;
71435;SDS011;59251;51.326;12.370;2024-02-16T04:27:12;10.23;;;2.03;;
71435;SDS011;59251;51.326;12.370;2024-02-16T04:29:38;6.55;;;1.90;;
71435;SDS011;59251;51.326;12.370;2024-02-16T04:32:05;6.88;;;1.98;;
71435;SDS011;59251;51.326;12.370;2024-02-16T04:34:32;5.93;;;2.10;;
71435;SDS011;59251;51.326;12.370;2024-02-16T04:36:59;13.80;;;4.97;;
71435;SDS011;59251;51.326;12.370;2024-02-16T04:39:26;6.90;;;2.20;;
71435;SDS011;59251;51.326;12.370;2024-02-16T04:41:56;6.57;;;1.98;;
71435;SDS011;59251;51.326;12.370;2024-02-16T04:44:22;5.97;;;2.07;;
71435;SDS011;59251;51.326;12.370;2024-02-16T04:46:50;8.32;;;2.33;;
71435;SDS011;59251;51.326;12.370;2024-02-16T04:49:17;6.15;;;2.10;;
71435;SDS011;59251;51.326;12.370;2024-02-16T04:51:44;8.52;;;2.20;;
71435;SDS011;59251;51.326;12.370;2024-02-16T04:54:11;7.82;;;2.10;;
71435;SDS011;59251;51.326;12.370;2024-02-16T04:56:38;7.55;;;2.05;;
71435;SDS011;59251;51.326;12.370;2024-02-16T04:59:06;6.55;;;2.08;;
71435;SDS011;59251;51.326;12.370;2024-02-16T05:01:33;7.45;;;2.22;;
71435;SDS011;59251;51.326;12.370;2024-02-16T05:04:00;9.02;;;2.33;;
71435;SDS011;59251;51.326;12.370;2024-02-16T05:06:27;6.80;;;2.10;;
71435;SDS011;59251;51.326;12.370;2024-02-16T05:08:56;6.40;;;1.90;;
71435;SDS011;59251;51.326;12.370;2024-02-16T05:11:23;9.13;;;2.10;;
71435;SDS011;59251;51.326;12.370;2024-02-16T05:13:51;7.72;;;2.15;;
71435;SDS011;59251;51.326;12.370;2024-02-16T05:16:19;6.55;;;2.03;;
71435;SDS011;59251;51.326;12.370;2024-02-16T05:18:45;6.70;;;2.20;;
71435;SDS011;59251;51.326;12.370;2024-02-16T05:21:12;6.10;;;1.80;;
71435;SDS011;59251;51.326;12.370;2024-02-16T05:23:39;7.47;;;1.75;;
71435;SDS011;59251;51.326;12.370;2024-02-16T05:26:05;6.78;;;1.88;;
71435;SDS011;59251;51.326;12.370;2024-02-16T05:28:32;9.38;;;2.38;;
71435;SDS011;59251;51.326;12.370;2024-02-16T05:31:00;6.78;;;1.90;;
71435;SDS011;59251;51.326;12.370;2024-02-16T05:33:41;6.73;;;1.80;;
71435;SDS011;59251;51.326;12.370;2024-02-16T05:36:08;8.05;;;2.25;;
71435;SDS011;59251;51.326;12.370;2024-02-16T05:38:34;7.00;;;2.30;;
71435;SDS011;59251;51.326;12.370;2024-02-16T05:41:06;8.07;;;3.20;;
71435;SDS011;59251;51.326;12.370;2024-02-16T05:43:33;6.43;;;2.00;;
71435;SDS011;59251;51.326;12.370;2024-02-16T05:46:00;5.78;;;1.90;;
71435;SDS011;59251;51.326;12.370;2024-02-16T05:48:26;7.50;;;2.08;;
71435;SDS011;59251;51.326;12.370;2024-02-16T05:50:59;8.55;;;2.35;;
71435;SDS011;59251;51.326;12.370;2024-02-16T05:53:27;7.10;;;1.90;;
71435;SDS011;59251;51.326;12.370;2024-02-16T05:55:54;8.02;;;2.20;;
71435;SDS011;59251;51.326;12.370;2024-02-16T05:58:21;6.57;;;2.00;;
71435;SDS011;59251;51.326;12.370;2024-02-16T06:00:48;7.70;;;1.95;;
71435;SDS011;59251;51.326;12.370;2024-02-16T06:03:15;8.43;;;1.90;;
71435;SDS011;59251;51.326;12.370;2024-02-16T06:05:41;8.15;;;2.13;;
71435;SDS011;59251;51.326;12.370;2024-02-16T06:08:11;7.85;;;1.75;;
71435;SDS011;59251;51.326;12.370;2024-02-16T06:10:38;6.38;;;1.67;;
71435;SDS011;59251;51.326;12.370;2024-02-16T06:13:06;6.78;;;1.88;;
71435;SDS011;59251;51.326;12.370;2024-02-16T06:15:33;6.93;;;1.70;;
71435;SDS011;59251;51.326;12.370;2024-02-16T06:18:00;6.28;;;2.30;;
71435;SDS011;59251;51.326;12.370;2024-02-16T06:20:27;8.98;;;2.55;;
71435;SDS011;59251;51.326;12.370;2024-02-16T06:22:55;7.18;;;2.30;;
71435;SDS011;59251;51.326;12.370;2024-02-16T06:25:23;6.20;;;1.95;;
71435;SDS011;59251;51.326;12.370;2024-02-16T06:27:50;9.45;;;2.15;;
71435;SDS011;59251;51.326;12.370;2024-02-16T06:30:17;8.40;;;2.00;;
71435;SDS011;59251;51.326;12.370;2024-02-16T06:32:43;8.82;;;2.40;;
71435;SDS011;59251;51.326;12.370;2024-02-16T06:35:10;9.27;;;2.23;;
71435;SDS011;59251;51.326;12.370;2024-02-16T06:37:37;8.20;;;2.20;;
71435;SDS011;59251;51.326;12.370;2024-02-16T06:40:04;8.30;;;2.17;;
71435;SDS011;59251;51.326;12.370;2024-02-16T06:42:35;8.00;;;2.58;;
71435;SDS011;59251;51.326;12.370;2024-02-16T06:45:02;7.25;;;2.38;;
71435;SDS011;59251;51.326;12.370;2024-02-16T06:47:30;9.55;;;2.20;;
71435;SDS011;59251;51.326;12.370;2024-02-16T06:49:57;8.20;;;2.00;;
71435;SDS011;59251;51.326;12.370;2024-02-16T06:52:23;6.70;;;1.80;;
71435;SDS011;59251;51.326;12.370;2024-02-16T06:54:50;7.55;;;2.55;;
71435;SDS011;59251;51.326;12.370;2024-02-16T06:57:18;7.00;;;2.38;;
71435;SDS011;59251;51.326;12.370;2024-02-16T06:59:47;6.15;;;2.00;;
71435;SDS011;59251;51.326;12.370;2024-02-16T07:02:14;9.15;;;1.92;;
71435;SDS011;59251;51.326;12.370;2024-02-16T07:04:43;9.02;;;2.22;;
71435;SDS011;59251;51.326;12.370;2024-02-16T07:07:10;9.10;;;2.05;;
71435;SDS011;59251;51.326;12.370;2024-02-16T07:09:37;6.93;;;2.00;;
71435;SDS011;59251;51.326;12.370;2024-02-16T07:12:05;6.43;;;1.90;;
71435;SDS011;59251;51.326;12.370;2024-02-16T07:14:32;6.95;;;2.10;;
71435;SDS011;59251;51.326;12.370;2024-02-16T07:17:00;9.85;;;2.33;;
71435;SDS011;59251;51.326;12.370;2024-02-16T07:19:27;9.75;;;2.08;;
71435;SDS011;59251;51.326;12.370;2024-02-16T07:21:55;9.10;;;2.70;;
71435;SDS011;59251;51.326;12.370;2024-02-16T07:24:21;8.90;;;2.55;;
71435;SDS011;59251;51.326;12.370;2024-02-16T07:26:48;8.38;;;2.30;;
71435;SDS011;59251;51.326;12.370;2024-02-16T07:29:15;7.43;;;2.25;;
71435;SDS011;59251;51.326;12.370;2024-02-16T07:31:42;7.47;;;2.47;;
71435;SDS011;59251;51.326;12.370;2024-02-16T07:34:10;7.15;;;2.45;;
71435;SDS011;59251;51.326;12.370;2024-02-16T07:36:37;8.93;;;2.40;;
71435;SDS011;59251;51.326;12.370;2024-02-16T07:39:04;7.53;;;2.67;;
71435;SDS011;59251;51.326;12.370;2024-02-16T07:41:31;6.90;;;2.30;;
71435;SDS011;59251;51.326;12.370;2024-02-16T07:43:57;7.75;;;2.30;;
71435;SDS011;59251;51.326;12.370;2024-02-16T07:46:24;9.43;;;2.38;;
71435;SDS011;59251;51.326;12.370;2024-02-16T07:48:51;7.63;;;2.53;;
71435;SDS011;59251;51.326;12.370;2024-02-16T07:51:19;8.77;;;2.30;;
71435;SDS011;59251;51.326;12.370;2024-02-16T07:53:45;8.70;;;2.35;;
71435;SDS011;59251;51.326;12.370;2024-02-16T07:56:12;5.78;;;1.80;;
71435;SDS011;59251;51.326;12.370;2024-02-16T07:58:40;7.68;;;2.25;;
71435;SDS011;59251;51.326;12.370;2024-02-16T08:01:08;6.20;;;2.10;;
71435;SDS011;59251;51.326;12.370;2024-02-16T08:03:36;5.75;;;1.75;;
71435;SDS011;59251;51.326;12.370;2024-02-16T08:06:03;8.60;;;1.73;;
71435;SDS011;59251;51.326;12.370;2024-02-16T08:08:31;12.85;;;2.67;;
71435;SDS011;59251;51.326;12.370;2024-02-16T08:10:58;8.25;;;2.00;;
71435;SDS011;59251;51.326;12.370;2024-02-16T08:13:24;6.95;;;1.60;;
71435;SDS011;59251;51.326;12.370;2024-02-16T08:15:51;7.75;;;1.52;;
71435;SDS011;59251;51.326;12.370;2024-02-16T08:18:18;6.22;;;1.90;;
71435;SDS011;59251;51.326;12.370;2024-02-16T08:20:45;7.30;;;1.40;;
71435;SDS011;59251;51.326;12.370;2024-02-16T08:23:12;6.28;;;1.55;;
71435;SDS011;59251;51.326;12.370;2024-02-16T08:25:40;5.70;;;1.48;;
71435;SDS011;59251;51.326;12.370;2024-02-16T08:28:06;7.57;;;1.85;;
71435;SDS011;59251;51.326;12.370;2024-02-16T08:30:34;6.00;;;1.50;;
71435;SDS011;59251;51.326;12.370;2024-02-16T08:33:01;8.65;;;1.58;;
71435;SDS011;59251;51.326;12.370;2024-02-16T08:35:27;6.97;;;1.40;;
71435;SDS011;59251;51.326;12.370;2024-02-16T08:37:54;7.05;;;1.80;;
71435;SDS011;59251;51.326;12.370;2024-02-16T08:40:21;6.53;;;1.50;;
71435;SDS011;59251;51.326;12.370;2024-02-16T08:42:50;5.95;;;1.38;;
71435;SDS011;59251;51.326;12.370;2024-02-16T08:45:17;8.48;;;1.60;;
71435;SDS011;59251;51.326;12.370;2024-02-16T08:47:43;7.50;;;2.38;;
71435;SDS011;59251;51.326;12.370;2024-02-16T08:50:10;6.10;;;1.50;;
71435;SDS011;59251;51.326;12.370;2024-02-16T08:52:37;4.82;;;1.25;;
71435;SDS011;59251;51.326;12.370;2024-02-16T08:55:04;5.50;;;1.23;;
71435;SDS011;59251;51.326;12.370;2024-02-16T08:57:31;6.28;;;1.52;;
71435;SDS011;59251;51.326;12.370;2024-02-16T09:00:00;6.53;;;1.40;;
71435;SDS011;59251;51.326;12.370;2024-02-16T09:02:28;5.97;;;1.40;;
71435;SDS011;59251;51.326;12.370;2024-02-16T09:04:55;5.55;;;1.63;;
71435;SDS011;59251;51.326;12.370;2024-02-16T09:07:22;5.85;;;1.50;;
71435;SDS011;59251;51.326;12.370;2024-02-16T09:09:51;6.47;;;1.70;;
71435;SDS011;59251;51.326;12.370;2024-02-16T09:12:17;5.45;;;1.40;;
71435;SDS011;59251;51.326;12.370;2024-02-16T09:14:44;8.30;;;1.05;;
71435;SDS011;59251;51.326;12.370;2024-02-16T09:17:12;5.47;;;1.20;;
71435;SDS011;59251;51.326;12.370;2024-02-16T09:19:39;7.15;;;1.17;;
71435;SDS011;59251;51.326;12.370;2024-02-16T09:22:05;5.10;;;1.17;;
71435;SDS011;59251;51.326;12.370;2024-02-16T09:24:32;5.05;;;1.13;;
71435;SDS011;59251;51.326;12.370;2024-02-16T09:26:59;5.43;;;1.35;;
71435;SDS011;59251;51.326;12.370;2024-02-16T09:29:29;5.53;;;1.20;;
71435;SDS011;59251;51.326;12.370;2024-02-16T09:31:56;6.50;;;1.40;;
71435;SDS011;59251;51.326;12.370;2024-02-16T09:34:24;6.00;;;1.67;;
71435;SDS011;59251;51.326;12.370;2024-02-16T09:36:50;6.57;;;1.58;;
71435;SDS011;59251;51.326;12.370;2024-02-16T09:39:17;5.53;;;1.45;;
71435;SDS011;59251;51.326;12.370;2024-02-16T09:41:44;6.10;;;1.67;;
71435;SDS011;59251;51.326;12.370;2024-02-16T09:44:16;5.45;;;1.48;;
71435;SDS011;59251;51.326;12.370;2024-02-16T09:46:43;5.60;;;1.58;;
71435;SDS011;59251;51.326;12.370;2024-02-16T09:49:10;5.22;;;1.25;;
71435;SDS011;59251;51.326;12.370;2024-02-16T09:51:39;8.57;;;1.67;;
71435;SDS011;59251;51.326;12.370;2024-02-16T09:54:05;7.55;;;2.05;;
71435;SDS011;59251;51.326;12.370;2024-02-16T09:56:33;5.53;;;1.60;;
71435;SDS011;59251;51.326;12.370;2024-02-16T09:59:00;8.40;;;1.50;;
71435;SDS011;59251;51.326;12.370;2024-02-16T10:01:27;7.82;;;1.80;;
71435;SDS011;59251;51.326;12.370;2024-02-16T10:03:59;6.47;;;1.50;;
71435;SDS011;59251;51.326;12.370;2024-02-16T10:06:31;5.90;;;1.60;;
71435;SDS011;59251;51.326;12.370;2024-02-16T10:08:59;8.23;;;1.75;;
71435;SDS011;59251;51.326;12.370;2024-02-16T10:11:31;6.57;;;1.40;;
71435;SDS011;59251;51.326;12.370;2024-02-16T10:13:58;6.57;;;1.38;;
71435;SDS011;59251;51.326;12.370;2024-02-16T10:16:26;6.15;;;1.80;;
71435;SDS011;59251;51.326;12.370;2024-02-16T10:18:54;6.38;;;1.38;;
71435;SDS011;59251;51.326;12.370;2024-02-16T10:21:24;5.45;;;1.42;;
71435;SDS011;59251;51.326;12.370;2024-02-16T10:23:56;5.30;;;1.42;;
71435;SDS011;59251;51.326;12.370;2024-02-16T10:26:25;5.47;;;1.52;;
71435;SDS011;59251;51.326;12.370;2024-02-16T10:28:52;4.82;;;1.10;;
71435;SDS011;59251;51.326;12.370;2024-02-16T10:31:22;7.15;;;1.38;;
71435;SDS011;59251;51.326;12.370;2024-02-16T10:33:54;5.57;;;1.42;;
71435;SDS011;59251;51.326;12.370;2024-02-16T10:36:24;6.03;;;1.20;;
71435;SDS011;59251;51.326;12.370;2024-02-16T10:38:51;6.35;;;1.35;;
71435;SDS011;59251;51.326;12.370;2024-02-16T10:41:19;8.57;;;1.42;;
71435;SDS011;59251;51.326;12.370;2024-02-16T10:43:48;5.30;;;1.23;;
71435;SDS011;59251;51.326;12.370;2024-02-16T10:46:15;5.63;;;1.20;;
71435;SDS011;59251;51.326;12.370;2024-02-16T10:48:42;6.30;;;1.67;;
71435;SDS011;59251;51.326;12.370;2024-02-16T10:51:09;4.88;;;1.10;;
71435;SDS011;59251;51.326;12.370;2024-02-16T10:53:37;6.93;;;1.15;;
71435;SDS011;59251;51.326;12.370;2024-02-16T10:56:06;6.53;;;1.67;;
71435;SDS011;59251;51.326;12.370;2024-02-16T10:58:33;5.53;;;1.02;;
71435;SDS011;59251;51.326;12.370;2024-02-16T11:01:08;7.03;;;1.20;;
71435;SDS011;59251;51.326;12.370;2024-02-16T11:03:37;5.50;;;1.42;;
71435;SDS011;59251;51.326;12.370;2024-02-16T11:06:11;6.55;;;1.70;;
71435;SDS011;59251;51.326;12.370;2024-02-16T11:08:41;5.82;;;1.40;;
71435;SDS011;59251;51.326;12.370;2024-02-16T11:11:08;5.38;;;1.40;;
71435;SDS011;59251;51.326;12.370;2024-02-16T11:13:37;6.90;;;1.60;;
71435;SDS011;59251;51.326;12.370;2024-02-16T11:16:08;5.28;;;1.55;;
71435;SDS011;59251;51.326;12.370;2024-02-16T11:18:37;6.32;;;1.60;;
71435;SDS011;59251;51.326;12.370;2024-02-16T11:21:05;5.13;;;1.30;;
71435;SDS011;59251;51.326;12.370;2024-02-16T11:23:34;5.75;;;1.42;;
71435;SDS011;59251;51.326;12.370;2024-02-16T11:26:02;6.22;;;1.52;;
71435;SDS011;59251;51.326;12.370;2024-02-16T11:28:31;5.22;;;1.13;;
71435;SDS011;59251;51.326;12.370;2024-02-16T11:30:59;6.50;;;1.35;;
71435;SDS011;59251;51.326;12.370;2024-02-16T11:33:27;6.75;;;1.60;;
71435;SDS011;59251;51.326;12.370;2024-02-16T11:35:54;5.85;;;1.58;;
71435;SDS011;59251;51.326;12.370;2024-02-16T11:38:22;5.97;;;1.85;;
71435;SDS011;59251;51.326;12.370;2024-02-16T11:40:53;7.38;;;1.38;;
71435;SDS011;59251;51.326;12.370;2024-02-16T11:43:21;6.43;;;1.48;;
71435;SDS011;59251;51.326;12.370;2024-02-16T11:45:48;5.72;;;1.50;;
71435;SDS011;59251;51.326;12.370;2024-02-16T11:48:18;4.82;;;1.40;;
71435;SDS011;59251;51.326;12.370;2024-02-16T11:50:47;7.27;;;2.00;;
71435;SDS011;59251;51.326;12.370;2024-02-16T11:53:15;5.95;;;1.92;;
71435;SDS011;59251;51.326;12.370;2024-02-16T11:55:46;5.78;;;1.70;;
71435;SDS011;59251;51.326;12.370;2024-02-16T11:58:14;6.90;;;1.80;;
71435;SDS011;59251;51.326;12.370;2024-02-16T12:00:42;5.93;;;1.65;;
71435;SDS011;59251;51.326;12.370;2024-02-16T12:03:09;5.77;;;1.43;;
71435;SDS011;59251;51.326;12.370;2024-02-16T12:05:35;7.68;;;1.60;;
71435;SDS011;59251;51.326;12.370;2024-02-16T12:08:04;6.35;;;1.70;;
71435;SDS011;59251;51.326;12.370;2024-02-16T12:10:32;7.03;;;1.88;;
71435;SDS011;59251;51.326;12.370;2024-02-16T12:12:59;5.60;;;1.73;;
71435;SDS011;59251;51.326;12.370;2024-02-16T12:15:26;6.80;;;1.57;;
71435;SDS011;59251;51.326;12.370;2024-02-16T12:17:59;5.50;;;1.50;;
71435;SDS011;59251;51.326;12.370;2024-02-16T12:20:27;5.78;;;1.60;;
71435;SDS011;59251;51.326;12.370;2024-02-16T12:22:54;5.20;;;1.50;;
71435;SDS011;59251;51.326;12.370;2024-02-16T12:25:23;5.60;;;1.67;;
71435;SDS011;59251;51.326;12.370;2024-02-16T12:27:49;5.20;;;1.23;;
71435;SDS011;59251;51.326;12.370;2024-02-16T12:30:16;6.72;;;1.35;;
71435;SDS011;59251;51.326;12.370;2024-02-16T12:32:43;4.82;;;1.20;;
71435;SDS011;59251;51.326;12.370;2024-02-16T12:35:10;5.10;;;1.33;;
71435;SDS011;59251;51.326;12.370;2024-02-16T12:37:37;5.40;;;1.30;;
71435;SDS011;59251;51.326;12.370;2024-02-16T12:40:04;5.07;;;1.10;;
71435;SDS011;59251;51.326;12.370;2024-02-16T12:42:33;7.00;;;1.50;;
71435;SDS011;59251;51.326;12.370;2024-02-16T12:45:00;5.57;;;1.15;;
71435;SDS011;59251;51.326;12.370;2024-02-16T12:47:27;5.35;;;1.42;;
71435;SDS011;59251;51.326;12.370;2024-02-16T12:49:55;5.32;;;1.15;;
71435;SDS011;59251;51.326;12.370;2024-02-16T12:52:23;4.97;;;1.10;;
71435;SDS011;59251;51.326;12.370;2024-02-16T12:54:49;6.65;;;1.42;;
71435;SDS011;59251;51.326;12.370;2024-02-16T12:57:16;6.78;;;1.40;;
71435;SDS011;59251;51.326;12.370;2024-02-16T12:59:44;7.72;;;1.55;;
71435;SDS011;59251;51.326;12.370;2024-02-16T13:02:11;4.85;;;1.20;;
71435;SDS011;59251;51.326;12.370;2024-02-16T13:04:38;5.37;;;1.47;;
71435;SDS011;59251;51.326;12.370;2024-02-16T13:07:05;5.47;;;1.30;;
71435;SDS011;59251;51.326;12.370;2024-02-16T13:09:32;5.78;;;1.20;;
71435;SDS011;59251;51.326;12.370;2024-02-16T13:11:58;5.78;;;1.48;;
71435;SDS011;59251;51.326;12.370;2024-02-16T13:14:25;5.90;;;1.25;;
71435;SDS011;59251;51.326;12.370;2024-02-16T13:16:54;6.13;;;1.40;;
71435;SDS011;59251;51.326;12.370;2024-02-16T13:19:20;5.05;;;1.15;;
71435;SDS011;59251;51.326;12.370;2024-02-16T13:21:47;5.88;;;1.23;;
71435;SDS011;59251;51.326;12.370;2024-02-16T13:24:14;6.28;;;1.35;;
71435;SDS011;59251;51.326;12.370;2024-02-16T13:26:41;5.97;;;1.35;;
71435;SDS011;59251;51.326;12.370;2024-02-16T13:29:07;5.37;;;1.20;;
71435;SDS011;59251;51.326;12.370;2024-02-16T13:31:34;5.13;;;1.02;;
71435;SDS011;59251;51.326;12.370;2024-02-16T13:34:02;5.75;;;1.42;;
71435;SDS011;59251;51.326;12.370;2024-02-16T13:36:29;4.70;;;1.00;;
71435;SDS011;59251;51.326;12.370;2024-02-16T13:38:56;5.38;;;1.30;;
71435;SDS011;59251;51.326;12.370;2024-02-16T13:41:23;5.20;;;1.23;;
71435;SDS011;59251;51.326;12.370;2024-02-16T13:43:51;5.07;;;1.10;;
71435;SDS011;59251;51.326;12.370;2024-02-16T13:46:18;5.80;;;1.10;;
71435;SDS011;59251;51.326;12.370;2024-02-16T13:48:45;7.05;;;1.38;;
71435;SDS011;59251;51.326;12.370;2024-02-16T13:51:13;5.10;;;1.35;;
71435;SDS011;59251;51.326;12.370;2024-02-16T13:53:40;6.60;;;1.40;;
71435;SDS011;59251;51.326;12.370;2024-02-16T13:56:07;6.72;;;1.27;;
71435;SDS011;59251;51.326;12.370;2024-02-16T13:58:34;5.90;;;1.30;;
71435;SDS011;59251;51.326;12.370;2024-02-16T14:01:02;5.82;;;1.33;;
71435;SDS011;59251;51.326;12.370;2024-02-16T14:03:29;4.60;;;1.05;;
71435;SDS011;59251;51.326;12.370;2024-02-16T14:05:57;6.53;;;1.10;;
71435;SDS011;59251;51.326;12.370;2024-02-16T14:08:26;6.18;;;1.63;;
71435;SDS011;59251;51.326;12.370;2024-02-16T14:10:53;5.00;;;1.30;;
71435;SDS011;59251;51.326;12.370;2024-02-16T14:13:20;5.93;;;1.40;;
71435;SDS011;59251;51.326;12.370;2024-02-16T14:15:47;7.45;;;1.58;;
71435;SDS011;59251;51.326;12.370;2024-02-16T14:18:14;5.97;;;1.67;;
71435;SDS011;59251;51.326;12.370;2024-02-16T14:20:40;6.32;;;1.67;;
71435;SDS011;59251;51.326;12.370;2024-02-16T14:23:07;6.10;;;1.40;;
71435;SDS011;59251;51.326;12.370;2024-02-16T14:25:36;5.85;;;1.40;;
71435;SDS011;59251;51.326;12.370;2024-02-16T14:28:05;6.45;;;1.50;;
71435;SDS011;59251;51.326;12.370;2024-02-16T14:30:32;6.73;;;1.30;;
71435;SDS011;59251;51.326;12.370;2024-02-16T14:32:59;5.68;;;1.38;;
71435;SDS011;59251;51.326;12.370;2024-02-16T14:35:29;6.13;;;1.40;;